Consulta los datos en tiempo real de la estación municipal de Seva
| Hora UTC | 16:45 |
|---|---|
| Temperatura | 30.9 ºC |
| Suelo 15 cm | 30.3 ºC |
| Humedad | 39.4 % |
| Presión | 1024.1 hPa |
| Pluja | 0.0 mm |
| Velocidad viento | 8.6 km/h |
| Dirección viento | SSE |
| Radiación solar | 57.5 W/m² |
| Temperatura (ºC) | Humedad (%) | Presión (hPa) | Velocidad viento (km/h) | Precipitación (mm) | Radiación solar (W/m²) | ||||||||||||||
|---|---|---|---|---|---|---|---|---|---|---|---|---|---|---|---|---|---|---|---|
| Hora UTC | Aire | Suelo 15 cm | Humedad | Presión | Vel. | Dir. | Vel. Max | Dir. | Intent. máx 5 min. | Rad. Sol. | |||||||||
| 00:05 | 20.8 | 18.7 | 59.4 | 1025.7 | 0.0 | NNE | 0.0 | S | 0.0 | 0.0 | |||||||||
| 00:10 | 20.8 | 18.7 | 59.1 | 1025.7 | 0.0 | NNE | 0.0 | NE | 0.0 | 0.1 | |||||||||
| 00:15 | 20.7 | 18.5 | 59.1 | 1025.7 | 0.8 | ENE | 2.8 | NE | 0.0 | 0.0 | |||||||||
| 00:20 | 20.6 | 18.4 | 59.3 | 1025.7 | 3.5 | ENE | 4.6 | ENE | 0.0 | 0.1 | |||||||||
| 00:25 | 20.5 | 18.4 | 59.9 | 1025.7 | 2.6 | ENE | 4.2 | NE | 0.0 | 0.0 | |||||||||
| 00:30 | 20.5 | 18.4 | 60.6 | 1025.6 | 2.8 | E | 3.9 | ESE | 0.0 | 0.1 | |||||||||
| 00:35 | 20.4 | 18.3 | 60.9 | 1025.6 | 3.2 | ENE | 3.9 | E | 0.0 | 0.1 | |||||||||
| 00:40 | 20.4 | 18.3 | 60.9 | 1025.5 | 3.5 | E | 4.6 | E | 0.0 | 0.0 | |||||||||
| 00:45 | 20.3 | 18.4 | 61.1 | 1025.5 | 3.0 | ESE | 3.9 | E | 0.0 | 0.0 | |||||||||
| 00:50 | 20.3 | 18.3 | 61.2 | 1025.5 | 2.9 | ENE | 3.9 | ENE | 0.0 | 0.0 | |||||||||
| 00:55 | 20.2 | 18.2 | 62.2 | 1025.5 | 1.2 | ESE | 2.8 | E | 0.0 | 0.0 | |||||||||
| 01:00 | 20.1 | 18.0 | 62.5 | 1025.5 | 0.3 | SSE | 1.8 | SSE | 0.0 | 0.1 | |||||||||
| 01:05 | 20.0 | 17.8 | 62.6 | 1025.5 | 0.4 | SSE | 1.8 | SSE | 0.0 | 0.1 | |||||||||
| 01:10 | 20.0 | 17.8 | 62.5 | 1025.4 | 0.0 | NNE | 0.0 | SSE | 0.0 | 0.1 | |||||||||
| 01:15 | 20.1 | 17.8 | 62.4 | 1025.5 | 0.2 | ENE | 1.8 | ENE | 0.0 | 0.0 | |||||||||
| 01:20 | 20.1 | 17.8 | 62.8 | 1025.5 | 0.8 | NE | 2.1 | NE | 0.0 | 0.1 | |||||||||
| 01:25 | 20.0 | 17.7 | 63.2 | 1025.4 | 2.0 | NE | 3.2 | NNE | 0.0 | 0.1 | |||||||||
| 01:30 | 20.0 | 17.7 | 63.3 | 1025.4 | 2.8 | NE | 3.9 | NE | 0.0 | 0.1 | |||||||||
| 01:35 | 20.0 | 17.7 | 63.4 | 1025.4 | 3.1 | NE | 4.6 | NE | 0.0 | 0.1 | |||||||||
| 01:40 | 20.1 | 17.7 | 63.3 | 1025.4 | 3.4 | NE | 4.9 | NE | 0.0 | 0.1 | |||||||||
| 01:45 | 20.1 | 17.8 | 63.5 | 1025.4 | 3.2 | NNE | 4.6 | NE | 0.0 | 0.1 | |||||||||
| 01:50 | 20.2 | 17.8 | 63.7 | 1025.3 | 1.9 | NE | 4.2 | NNE | 0.0 | 0.1 | |||||||||
| 01:55 | 20.1 | 17.8 | 63.4 | 1025.3 | 1.2 | E | 2.5 | ENE | 0.0 | 0.1 | |||||||||
| 02:00 | 19.9 | 17.7 | 64.1 | 1025.3 | 0.0 | SE | 1.1 | SE | 0.0 | 0.1 | |||||||||
| 02:05 | 19.7 | 17.5 | 65.2 | 1025.3 | 0.5 | ESE | 1.8 | ENE | 0.0 | 0.1 | |||||||||
| 02:10 | 19.6 | 17.4 | 65.7 | 1025.3 | 1.8 | ENE | 2.8 | E | 0.0 | 0.1 | |||||||||
| 02:15 | 19.6 | 17.4 | 65.8 | 1025.3 | 4.1 | ENE | 5.3 | E | 0.0 | 0.0 | |||||||||
| 02:20 | 19.5 | 17.4 | 65.5 | 1025.3 | 3.8 | ENE | 4.6 | ENE | 0.0 | 0.1 | |||||||||
| 02:25 | 19.5 | 17.5 | 65.4 | 1025.2 | 3.3 | ENE | 4.2 | ENE | 0.0 | 0.1 | |||||||||
| 02:30 | 19.5 | 17.5 | 65.5 | 1025.2 | 4.3 | ENE | 4.9 | ENE | 0.0 | 0.1 | |||||||||
| 02:35 | 19.4 | 17.5 | 65.6 | 1025.2 | 4.6 | ENE | 6.0 | E | 0.0 | 0.1 | |||||||||
| 02:40 | 19.4 | 17.4 | 65.7 | 1025.2 | 4.6 | ENE | 5.6 | E | 0.0 | 0.0 | |||||||||
| 02:45 | 19.5 | 17.4 | 65.5 | 1025.2 | 2.9 | ENE | 4.6 | ENE | 0.0 | 0.1 | |||||||||
| 02:50 | 19.5 | 17.2 | 66.0 | 1025.2 | 1.8 | ENE | 4.2 | NNE | 0.0 | 0.1 | |||||||||
| 02:55 | 19.5 | 17.3 | 66.1 | 1025.2 | 1.9 | E | 2.8 | E | 0.0 | 0.1 | |||||||||
| 03:00 | 19.4 | 17.3 | 67.0 | 1025.1 | 1.0 | ESE | 2.5 | E | 0.0 | 0.1 | |||||||||
| 03:05 | 19.4 | 17.2 | 66.9 | 1025.2 | 0.1 | S | 1.4 | S | 0.0 | 0.0 | |||||||||
| 03:10 | 19.3 | 17.1 | 67.2 | 1025.2 | 0.0 | NNE | 0.0 | S | 0.0 | 0.0 | |||||||||
| 03:15 | 19.1 | 16.9 | 67.8 | 1025.2 | 0.0 | NNE | 0.0 | SSE | 0.0 | 0.1 | |||||||||
| 03:20 | 19.0 | 16.7 | 68.1 | 1025.1 | 0.8 | SE | 1.8 | SE | 0.0 | 0.1 | |||||||||
| 03:25 | 18.9 | 16.6 | 68.4 | 1025.1 | 0.1 | ESE | 1.1 | ESE | 0.0 | 0.1 | |||||||||
| 03:30 | 18.8 | 16.5 | 68.7 | 1025.1 | 0.1 | ESE | 1.4 | ESE | 0.0 | 0.0 | |||||||||
| 03:35 | 18.7 | 16.4 | 68.5 | 1025.1 | 0.0 | NNE | 1.1 | NNE | 0.0 | 0.1 | |||||||||
| 03:40 | 18.7 | 16.4 | 68.8 | 1025.1 | 2.2 | NE | 3.2 | NE | 0.0 | 0.1 | |||||||||
| 03:45 | 18.7 | 16.4 | 69.7 | 1025.0 | 2.0 | E | 3.5 | ENE | 0.0 | 0.1 | |||||||||
| 03:50 | 18.8 | 16.4 | 67.7 | 1025.0 | 0.8 | NE | 2.1 | ENE | 0.0 | 0.1 | |||||||||
| 03:55 | 18.8 | 16.6 | 67.8 | 1025.0 | 1.3 | ENE | 2.8 | E | 0.0 | 0.1 | |||||||||
| 04:00 | 18.7 | 16.5 | 67.8 | 1025.0 | 3.5 | E | 5.3 | ENE | 0.0 | 0.1 | |||||||||
| 04:05 | 18.7 | 16.5 | 67.8 | 1024.9 | 3.4 | ENE | 4.9 | E | 0.0 | 0.0 | |||||||||
| 04:10 | 19.0 | 16.5 | 68.3 | 1024.9 | 3.2 | ENE | 4.9 | NNE | 0.0 | 0.0 | |||||||||
| 04:15 | 19.0 | 16.6 | 68.9 | 1024.9 | 2.8 | ENE | 3.9 | ENE | 0.0 | 0.1 | |||||||||
| 04:20 | 19.0 | 16.5 | 69.9 | 1024.9 | 2.1 | ENE | 3.5 | E | 0.0 | 0.0 | |||||||||
| 04:25 | 18.9 | 16.6 | 70.8 | 1024.9 | 2.4 | E | 3.2 | ESE | 0.0 | 0.1 | |||||||||
| 04:30 | 18.9 | 16.5 | 71.3 | 1024.9 | 1.9 | E | 2.8 | E | 0.0 | 0.1 | |||||||||
| 04:35 | 18.9 | 16.6 | 71.5 | 1024.9 | 2.1 | E | 3.2 | ESE | 0.0 | 0.1 | |||||||||
| 04:40 | 18.7 | 16.4 | 70.7 | 1024.8 | 0.6 | ENE | 2.5 | E | 0.0 | 0.1 | |||||||||
| 04:45 | 18.6 | 16.3 | 71.9 | 1024.8 | 0.0 | NNE | 0.0 | NE | 0.0 | 0.1 | |||||||||
| 04:50 | 18.6 | 16.3 | 71.9 | 1024.8 | 0.1 | N | 1.4 | N | 0.0 | 0.1 | |||||||||
| 04:55 | 18.5 | 16.2 | 72.4 | 1024.8 | 0.0 | E | 1.1 | E | 0.0 | 0.1 | |||||||||
| 05:00 | 18.4 | 16.1 | 72.6 | 1024.8 | 0.0 | ESE | 1.1 | ESE | 0.0 | 0.1 | |||||||||
| 05:05 | 18.5 | 16.2 | 73.1 | 1024.8 | 0.1 | ESE | 1.4 | ESE | 0.0 | 0.2 | |||||||||
| 05:10 | 18.5 | 16.3 | 73.1 | 1024.8 | 0.3 | E | 1.8 | E | 0.0 | 0.4 | |||||||||
| 05:15 | 18.6 | 16.2 | 73.1 | 1024.8 | 1.3 | E | 2.1 | E | 0.0 | 1.0 | |||||||||
| 05:20 | 18.5 | 16.2 | 73.2 | 1024.8 | 1.0 | ESE | 2.1 | E | 0.0 | 2.3 | |||||||||
| 05:25 | 18.4 | 16.2 | 73.5 | 1024.8 | 1.9 | E | 3.2 | ENE | 0.0 | 4.0 | |||||||||
| 05:30 | 18.4 | 16.1 | 73.7 | 1024.8 | 2.2 | E | 3.2 | E | 0.0 | 6.6 | |||||||||
| 05:35 | 18.4 | 16.1 | 73.8 | 1024.8 | 3.6 | E | 5.3 | E | 0.0 | 10.4 | |||||||||
| 05:40 | 18.6 | 16.3 | 73.6 | 1024.8 | 4.8 | ENE | 6.4 | ENE | 0.0 | 15.2 | |||||||||
| 05:45 | 18.8 | 16.5 | 73.0 | 1024.8 | 4.4 | ENE | 5.3 | ENE | 0.0 | 20.6 | |||||||||
| 05:50 | 18.9 | 16.7 | 72.5 | 1024.8 | 1.9 | ENE | 4.2 | NE | 0.0 | 26.4 | |||||||||
| 05:55 | 19.0 | 16.9 | 72.6 | 1024.9 | 0.0 | NNE | 0.0 | ENE | 0.0 | 32.3 | |||||||||
| 06:00 | 19.1 | 17.1 | 72.2 | 1024.9 | 0.6 | NNE | 1.4 | NNE | 0.0 | 42.3 | |||||||||
| 06:05 | 19.1 | 17.3 | 72.1 | 1024.9 | 1.7 | N | 2.5 | NNE | 0.0 | 58.9 | |||||||||
| 06:10 | 19.2 | 17.4 | 72.2 | 1025.0 | 1.5 | ENE | 2.5 | ENE | 0.0 | 70.4 | |||||||||
| 06:15 | 19.3 | 17.6 | 72.3 | 1025.0 | 2.1 | NE | 2.5 | ENE | 0.0 | 82.0 | |||||||||
| 06:20 | 19.5 | 17.9 | 72.0 | 1025.0 | 2.2 | NE | 3.2 | ENE | 0.0 | 94.4 | |||||||||
| 06:25 | 19.9 | 18.3 | 70.5 | 1025.1 | 4.5 | NE | 7.1 | NE | 0.0 | 108.0 | |||||||||
| 06:30 | 20.2 | 18.8 | 69.9 | 1025.1 | 4.7 | ENE | 7.8 | ENE | 0.0 | 121.7 | |||||||||
| 06:35 | 20.5 | 19.2 | 68.9 | 1025.1 | 6.0 | ENE | 8.5 | ENE | 0.0 | 134.8 | |||||||||
| 06:40 | 21.2 | 19.8 | 64.0 | 1025.1 | 5.4 | ENE | 8.5 | NE | 0.0 | 150.4 | |||||||||
| 06:45 | 22.1 | 20.6 | 61.0 | 1025.2 | 3.2 | ENE | 6.4 | NE | 0.0 | 160.0 | |||||||||
| 06:50 | 22.5 | 21.2 | 60.4 | 1025.2 | 2.7 | NNE | 4.9 | NW | 0.0 | 173.7 | |||||||||
| 06:55 | 22.2 | 22.3 | 60.7 | 1025.2 | 3.4 | NW | 6.0 | WNW | 0.0 | 191.9 | |||||||||
| 07:00 | 21.6 | 22.3 | 63.2 | 1025.2 | 3.1 | NW | 6.7 | WNW | 0.0 | 204.0 | |||||||||
| 07:05 | 21.4 | 22.4 | 64.3 | 1025.3 | 3.0 | NW | 6.7 | WNW | 0.0 | 229.2 | |||||||||
| 07:10 | 21.4 | 23.0 | 64.3 | 1025.3 | 2.0 | WNW | 6.7 | WNW | 0.0 | 247.0 | |||||||||
| 07:15 | 21.7 | 23.9 | 63.4 | 1025.3 | 1.5 | WNW | 3.9 | WNW | 0.0 | 260.0 | |||||||||
| 07:20 | 22.2 | 25.0 | 62.3 | 1025.3 | 0.7 | W | 3.2 | WNW | 0.0 | 274.1 | |||||||||
| 07:25 | 22.7 | 26.3 | 60.3 | 1025.3 | 0.1 | WNW | 1.4 | WNW | 0.0 | 284.2 | |||||||||
| 07:30 | 23.3 | 27.0 | 59.0 | 1025.3 | 0.3 | WNW | 2.5 | WNW | 0.0 | 292.5 | |||||||||
| 07:35 | 23.6 | 27.8 | 57.8 | 1025.3 | 1.6 | W | 3.2 | WNW | 0.0 | 303.9 | |||||||||
| 07:40 | 23.7 | 28.5 | 57.5 | 1025.3 | 2.7 | WNW | 5.3 | W | 0.0 | 320.4 | |||||||||
| 07:45 | 23.6 | 29.0 | 57.3 | 1025.3 | 3.6 | WNW | 5.6 | W | 0.0 | 338.7 | |||||||||
| 07:50 | 23.7 | 29.6 | 57.3 | 1025.3 | 2.8 | WNW | 4.9 | W | 0.0 | 355.5 | |||||||||
| 07:55 | 23.9 | 30.3 | 56.3 | 1025.3 | 2.6 | WNW | 4.2 | WNW | 0.0 | 372.1 | |||||||||
| 08:00 | 24.1 | 30.8 | 56.0 | 1025.3 | 1.1 | NW | 3.5 | NW | 0.0 | 386.5 | |||||||||
| 08:05 | 24.8 | 31.3 | 55.0 | 1025.3 | 0.1 | W | 2.5 | W | 0.0 | 388.5 | |||||||||
| 08:10 | 25.2 | 31.4 | 53.2 | 1025.3 | 1.6 | WNW | 3.2 | NW | 0.0 | 406.6 | |||||||||
| 08:15 | 25.7 | 31.9 | 52.5 | 1025.3 | 1.8 | NNW | 3.9 | NW | 0.0 | 423.8 | |||||||||
| 08:20 | 26.2 | 32.5 | 51.2 | 1025.3 | 1.4 | NNW | 4.6 | NW | 0.0 | 424.2 | |||||||||
| 08:25 | 26.8 | 33.3 | 49.9 | 1025.3 | 2.1 | NNW | 5.3 | NNW | 0.0 | 443.8 | |||||||||
| 08:30 | 27.0 | 33.7 | 49.3 | 1025.3 | 2.2 | NNW | 4.2 | NW | 0.0 | 451.6 | |||||||||
| 08:35 | 27.3 | 34.1 | 48.8 | 1025.3 | 2.9 | WNW | 4.6 | NNW | 0.0 | 473.2 | |||||||||
| 08:40 | 27.4 | 34.7 | 49.1 | 1025.3 | 3.0 | NW | 4.9 | NW | 0.0 | 488.9 | |||||||||
| 08:45 | 27.6 | 35.0 | 48.4 | 1025.4 | 2.5 | NNW | 4.2 | NW | 0.0 | 466.6 | |||||||||
| 08:50 | 28.1 | 35.2 | 46.9 | 1025.4 | 2.9 | WNW | 4.9 | NW | 0.0 | 499.2 | |||||||||
| 08:55 | 28.3 | 35.7 | 46.3 | 1025.4 | 3.8 | WNW | 6.0 | W | 0.0 | 524.0 | |||||||||
| 09:00 | 28.6 | 36.6 | 44.8 | 1025.4 | 3.0 | WNW | 5.6 | WNW | 0.0 | 534.3 | |||||||||
| 09:05 | 28.9 | 37.1 | 44.8 | 1025.4 | 5.1 | NW | 8.5 | NW | 0.0 | 540.2 | |||||||||
| 09:10 | 29.1 | 36.8 | 44.4 | 1025.4 | 4.4 | NW | 7.4 | WNW | 0.0 | 540.0 | |||||||||
| 09:15 | 29.3 | 37.1 | 44.6 | 1025.4 | 5.7 | WNW | 8.8 | NW | 0.0 | 561.9 | |||||||||
| 09:20 | 29.4 | 37.7 | 44.2 | 1025.5 | 5.4 | WNW | 8.8 | W | 0.0 | 574.3 | |||||||||
| 09:25 | 29.8 | 38.1 | 42.8 | 1025.5 | 3.7 | W | 7.8 | WSW | 0.0 | 584.7 | |||||||||
| 09:30 | 30.2 | 38.3 | 40.5 | 1025.5 | 3.2 | W | 7.4 | W | 0.0 | 595.1 | |||||||||
| 09:35 | 30.8 | 38.7 | 39.6 | 1025.4 | 3.5 | WNW | 8.1 | WNW | 0.0 | 602.3 | |||||||||
| 09:40 | 31.5 | 39.7 | 37.5 | 1025.4 | 2.8 | W | 6.4 | WSW | 0.0 | 611.1 | |||||||||
| 09:45 | 31.7 | 40.1 | 36.3 | 1025.4 | 4.0 | W | 8.1 | WNW | 0.0 | 619.8 | |||||||||
| 09:50 | 32.2 | 40.5 | 34.5 | 1025.3 | 5.3 | W | 9.2 | W | 0.0 | 629.0 | |||||||||
| 09:55 | 32.8 | 40.8 | 29.3 | 1025.3 | 5.6 | SE | 13.1 | SE | 0.0 | 638.9 | |||||||||
| 10:00 | 33.5 | 39.9 | 26.5 | 1025.3 | 6.4 | S | 15.2 | SE | 0.0 | 647.9 | |||||||||
| 10:05 | 33.8 | 39.5 | 26.1 | 1025.3 | 7.8 | SSE | 15.9 | SSE | 0.0 | 656.5 | |||||||||
| 10:10 | 34.1 | 39.5 | 26.5 | 1025.2 | 5.1 | SE | 14.1 | S | 0.0 | 663.1 | |||||||||
| 10:15 | 34.1 | 39.4 | 26.4 | 1025.2 | 7.6 | ESE | 13.8 | SE | 0.0 | 669.5 | |||||||||
| 10:20 | 34.3 | 39.3 | 26.3 | 1025.2 | 7.4 | SE | 14.5 | SE | 0.0 | 677.1 | |||||||||
| 10:25 | 34.4 | 39.4 | 26.0 | 1025.1 | 6.5 | SE | 13.8 | ESE | 0.0 | 683.6 | |||||||||
| 10:30 | 34.5 | 39.4 | 25.2 | 1025.1 | 9.3 | SE | 16.6 | ESE | 0.0 | 691.0 | |||||||||
| 10:35 | 34.6 | 39.5 | 25.4 | 1025.1 | 6.8 | SE | 15.9 | ESE | 0.0 | 697.6 | |||||||||
| 10:40 | 34.6 | 39.7 | 25.0 | 1025.1 | 9.5 | SE | 16.9 | ESE | 0.0 | 704.8 | |||||||||
| 10:45 | 34.5 | 39.2 | 25.8 | 1025.0 | 9.9 | SE | 17.3 | SSE | 0.0 | 706.3 | |||||||||
| 10:50 | 34.5 | 39.2 | 25.2 | 1025.0 | 9.1 | SSE | 17.6 | SSE | 0.0 | 651.9 | |||||||||
| 10:55 | 34.6 | 39.2 | 25.3 | 1025.0 | 9.0 | SE | 14.8 | SSE | 0.0 | 716.5 | |||||||||
| 11:00 | 34.8 | 39.4 | 25.8 | 1024.9 | 7.6 | SE | 18.0 | SE | 0.0 | 727.6 | |||||||||
| 11:05 | 35.2 | 40.4 | 25.4 | 1024.9 | 7.9 | SSE | 16.9 | S | 0.0 | 728.3 | |||||||||
| 11:10 | 35.1 | 40.3 | 25.9 | 1024.9 | 8.8 | S | 20.8 | S | 0.0 | 730.0 | |||||||||
| 11:15 | 35.2 | 40.2 | 25.5 | 1024.9 | 8.7 | S | 18.4 | SSW | 0.0 | 732.9 | |||||||||
| 11:20 | 35.2 | 40.2 | 25.5 | 1024.8 | 9.0 | SSE | 19.8 | SSW | 0.0 | 734.5 | |||||||||
| 11:25 | 35.4 | 40.3 | 25.4 | 1024.8 | 9.2 | SSE | 19.4 | SSE | 0.0 | 736.4 | |||||||||
| 11:30 | 35.5 | 40.3 | 24.9 | 1024.8 | 9.9 | S | 19.8 | SSE | 0.0 | 739.7 | |||||||||
| 11:35 | 35.5 | 40.5 | 24.7 | 1024.8 | 11.9 | SSE | 23.6 | S | 0.0 | 742.1 | |||||||||
| 11:40 | 35.4 | 40.3 | 25.4 | 1024.8 | 6.9 | SSE | 18.4 | SSE | 0.0 | 741.9 | |||||||||
| 11:45 | 36.0 | 41.2 | 24.5 | 1024.7 | 7.0 | SSE | 18.0 | SSE | 0.0 | 743.5 | |||||||||
| 11:50 | 35.9 | 41.2 | 23.5 | 1024.7 | 10.2 | SSE | 20.5 | S | 0.0 | 746.1 | |||||||||
| 11:55 | 35.7 | 40.7 | 24.3 | 1024.7 | 8.5 | SE | 15.9 | SE | 0.0 | 743.4 | |||||||||
| 12:00 | 35.9 | 41.1 | 24.5 | 1024.7 | 8.4 | SSE | 19.4 | SE | 0.0 | 741.7 | |||||||||
| 12:05 | 35.7 | 40.9 | 23.9 | 1024.7 | 10.6 | SSE | 21.2 | SSE | 0.0 | 742.3 | |||||||||
| 12:10 | 35.6 | 40.8 | 24.0 | 1024.7 | 7.5 | SSE | 19.1 | SSE | 0.0 | 740.1 | |||||||||
| 12:15 | 35.7 | 40.5 | 23.9 | 1024.7 | 10.8 | SSE | 22.2 | SE | 0.0 | 733.9 | |||||||||
| 12:20 | 35.8 | 40.5 | 24.0 | 1024.7 | 9.9 | SE | 20.5 | ESE | 0.0 | 727.3 | |||||||||
| 12:25 | 35.6 | 40.5 | 24.6 | 1024.6 | 8.9 | SE | 17.6 | ESE | 0.0 | 714.4 | |||||||||
| 12:30 | 35.8 | 40.5 | 24.4 | 1024.6 | 9.3 | SSE | 20.5 | SE | 0.0 | 715.8 | |||||||||
| 12:35 | 35.8 | 40.5 | 23.8 | 1024.5 | 8.5 | SE | 17.6 | SE | 0.0 | 715.2 | |||||||||
| 12:40 | 36.1 | 41.1 | 24.0 | 1024.5 | 9.5 | SSW | 19.4 | S | 0.0 | 725.9 | |||||||||
| 12:45 | 36.1 | 41.5 | 24.3 | 1024.5 | 9.0 | SSE | 18.0 | S | 0.0 | 722.4 | |||||||||
| 12:50 | 36.0 | 41.1 | 24.8 | 1024.4 | 10.3 | SSE | 19.8 | S | 0.0 | 717.7 | |||||||||
| 12:55 | 35.9 | 40.9 | 24.8 | 1024.4 | 9.7 | SE | 21.2 | SE | 0.0 | 713.3 | |||||||||
| 13:00 | 36.1 | 41.1 | 24.2 | 1024.4 | 8.5 | SSE | 18.0 | ESE | 0.0 | 712.2 | |||||||||
| 13:05 | 35.9 | 40.9 | 23.4 | 1024.4 | 8.9 | SSE | 16.2 | SE | 0.0 | 689.4 | |||||||||
| 13:10 | 36.2 | 41.1 | 24.9 | 1024.3 | 10.3 | S | 21.5 | S | 0.0 | 692.5 | |||||||||
| 13:15 | 36.1 | 41.1 | 25.1 | 1024.3 | 7.2 | SSE | 18.0 | SSW | 0.0 | 687.3 | |||||||||
| 13:20 | 36.2 | 41.4 | 25.0 | 1024.3 | 12.2 | SSE | 21.2 | SE | 0.0 | 627.7 | |||||||||
| 13:25 | 35.8 | 40.7 | 26.2 | 1024.3 | 10.0 | SSE | 20.8 | SE | 0.0 | 665.1 | |||||||||
| 13:30 | 35.7 | 40.1 | 26.6 | 1024.3 | 9.1 | SSE | 24.7 | S | 0.0 | 668.2 | |||||||||
| 13:35 | 35.5 | 40.2 | 26.2 | 1024.2 | 9.4 | SSE | 17.6 | S | 0.0 | 661.3 | |||||||||
| 13:40 | 35.5 | 40.0 | 26.5 | 1024.2 | 9.4 | SSE | 24.0 | S | 0.0 | 655.4 | |||||||||
| 13:45 | 35.3 | 39.7 | 28.2 | 1024.2 | 12.2 | SSE | 24.3 | SSE | 0.0 | 644.1 | |||||||||
| 13:50 | 35.0 | 39.3 | 29.2 | 1024.2 | 10.3 | SSE | 20.5 | SSE | 0.0 | 636.5 | |||||||||
| 13:55 | 35.3 | 39.6 | 29.6 | 1024.2 | 8.5 | SSE | 18.7 | SE | 0.0 | 629.7 | |||||||||
| 14:00 | 35.2 | 39.8 | 29.5 | 1024.2 | 11.0 | S | 25.1 | S | 0.0 | 624.0 | |||||||||
| 14:05 | 34.8 | 39.3 | 30.3 | 1024.2 | 10.4 | SSE | 26.5 | SE | 0.0 | 613.4 | |||||||||
| 14:10 | 34.7 | 39.2 | 30.8 | 1024.2 | 12.3 | S | 24.7 | SSE | 0.0 | 603.1 | |||||||||
| 14:15 | 34.4 | 38.5 | 31.7 | 1024.1 | 12.9 | SSE | 25.4 | S | 0.0 | 593.9 | |||||||||
| 14:20 | 34.3 | 38.0 | 32.2 | 1024.1 | 10.4 | SSE | 23.6 | S | 0.0 | 584.6 | |||||||||
| 14:25 | 34.3 | 38.2 | 32.6 | 1024.1 | 12.4 | SSE | 22.6 | SSE | 0.0 | 572.8 | |||||||||
| 14:30 | 34.2 | 37.5 | 32.7 | 1024.1 | 12.0 | SSE | 22.9 | ESE | 0.0 | 561.7 | |||||||||
| 14:35 | 34.1 | 36.6 | 33.3 | 1024.1 | 10.9 | SSE | 21.3 | SSE | 0.0 | 551.5 | |||||||||
| 14:40 | 34.1 | 36.4 | 32.7 | 1024.1 | 12.8 | SSE | 28.6 | S | 0.0 | 538.3 | |||||||||
| 14:45 | 33.9 | 36.2 | 32.9 | 1024.1 | 12.9 | SSE | 25.4 | SE | 0.0 | 527.8 | |||||||||
| 14:50 | 34.1 | 36.5 | 33.0 | 1024.1 | 10.4 | SSE | 19.8 | SE | 0.0 | 518.5 | |||||||||
| 14:55 | 34.0 | 37.0 | 33.7 | 1024.1 | 12.3 | SE | 24.7 | SE | 0.0 | 508.4 | |||||||||
| 15:00 | 34.2 | 37.4 | 32.8 | 1024.1 | 11.5 | SSE | 25.4 | SSE | 0.0 | 496.4 | |||||||||
| 15:05 | 34.0 | 37.2 | 33.3 | 1024.0 | 10.4 | SSE | 23.6 | SE | 0.0 | 483.9 | |||||||||
| 15:10 | 34.1 | 37.6 | 33.3 | 1024.0 | 10.9 | SSE | 22.6 | S | 0.0 | 471.2 | |||||||||
| 15:15 | 34.0 | 37.6 | 33.2 | 1023.9 | 9.6 | SE | 22.2 | SSE | 0.0 | 459.6 | |||||||||
| 15:20 | 33.8 | 37.4 | 34.2 | 1023.9 | 10.3 | SE | 23.3 | SE | 0.0 | 445.5 | |||||||||
| 15:25 | 33.9 | 37.5 | 33.5 | 1023.9 | 10.4 | SSE | 25.8 | SE | 0.0 | 431.8 | |||||||||
| 15:30 | 33.8 | 37.1 | 34.0 | 1023.9 | 11.4 | SE | 25.4 | SE | 0.0 | 417.9 | |||||||||
| 15:35 | 33.9 | 37.0 | 33.1 | 1023.9 | 9.4 | SSE | 23.3 | SSW | 0.0 | 405.4 | |||||||||
| 15:40 | 33.8 | 37.1 | 33.1 | 1023.9 | 11.7 | SSE | 20.8 | S | 0.0 | 392.8 | |||||||||
| 15:45 | 33.6 | 36.7 | 34.1 | 1023.9 | 12.1 | SSE | 24.7 | E | 0.0 | 379.6 | |||||||||
| 15:50 | 33.7 | 36.8 | 33.6 | 1023.9 | 9.3 | SE | 26.5 | SE | 0.0 | 367.9 | |||||||||
| 15:55 | 33.4 | 36.6 | 33.3 | 1023.9 | 11.0 | SE | 27.9 | SE | 0.0 | 354.7 | |||||||||
| 16:00 | 33.6 | 36.6 | 33.8 | 1023.9 | 6.6 | SE | 19.1 | ESE | 0.0 | 341.3 | |||||||||
| 16:05 | 33.7 | 37.0 | 33.7 | 1024.0 | 8.6 | SE | 18.7 | SE | 0.0 | 320.4 | |||||||||
| 16:10 | 33.5 | 36.5 | 33.5 | 1024.0 | 8.6 | SSE | 21.5 | S | 0.0 | 268.2 | |||||||||
| 16:15 | 33.3 | 35.8 | 34.0 | 1023.9 | 9.8 | SE | 24.2 | SSE | 0.0 | 183.8 | |||||||||
| 16:20 | 32.7 | 34.1 | 35.1 | 1024.0 | 9.2 | SE | 20.5 | SSE | 0.0 | 84.7 | |||||||||
| 16:25 | 32.2 | 32.7 | 36.1 | 1024.0 | 8.3 | SSE | 16.9 | S | 0.0 | 62.1 | |||||||||
| 16:30 | 31.8 | 31.7 | 37.4 | 1024.1 | 10.3 | SE | 21.9 | SE | 0.0 | 53.0 | |||||||||
| 16:35 | 31.4 | 31.0 | 37.9 | 1024.1 | 10.2 | SSE | 20.8 | SSE | 0.0 | 54.3 | |||||||||
| 16:40 | 31.2 | 30.6 | 38.8 | 1024.1 | 9.9 | SE | 19.8 | SE | 0.0 | 55.8 | |||||||||
| 16:45 | 30.9 | 30.3 | 39.4 | 1024.1 | 8.6 | SSE | 16.2 | SSE | 0.0 | 57.5 | |||||||||
| Máxima | 36.2 | 41.5 | 73.8 | 1025.7 | 12.9 | SSE | 28.6 | S | 0.0 | 746.1 | |||||||||
| Mínima | 18.4 | 16.1 | 23.4 | 1023.9 | |||||||||||||||
| Total | 0.0 | ||||||||||||||||||